Time;durP1;ratioP1;P1;durP2;ratioP2;P2;SDS_P1;SDS_P2;PMS_P1;PMS_P2;Temp;Humidity;BMP_temperature;BMP_pressure;BME280_temperature;BME280_humidity;BME280_pressure;Samples;Min_cycle;Max_cycle;Signal;HPM_P1;HPM_P2
2020/12/09 00:01:28;;;;;;;7.75;5.00;;;;;;;9.16;79.12;99397.94;4411426;32;20815;-73
2020/12/09 00:03:54;;;;;;;7.70;4.90;;;;;;;9.14;79.63;99392.03;4411577;32;20411;-72
2020/12/09 00:06:20;;;;;;;7.37;4.05;;;;;;;9.14;79.60;99394.84;4411747;32;20038;-72
2020/12/09 00:08:46;;;;;;;8.32;4.50;;;;;;;9.16;79.29;99395.94;4411920;32;20148;-71
2020/12/09 00:11:11;;;;;;;12.02;4.10;;;;;;;9.00;79.27;99393.38;4410983;32;20046;-73
2020/12/09 00:13:38;;;;;;;8.00;3.80;;;;;;;9.14;79.39;99390.00;4412080;32;20151;-71
2020/12/09 00:16:04;;;;;;;7.20;3.15;;;;;;;9.13;79.13;99398.87;4411161;32;20022;-72
2020/12/09 00:18:30;;;;;;;7.32;3.50;;;;;;;9.02;79.29;99393.66;4411612;32;20089;-72
2020/12/09 00:20:56;;;;;;;5.93;3.05;;;;;;;8.93;80.04;99399.22;4412671;32;20091;-71
2020/12/09 00:23:21;;;;;;;5.12;2.87;;;;;;;8.94;80.07;99403.62;4408989;32;20069;-71
2020/12/09 00:25:47;;;;;;;7.70;3.25;;;;;;;9.03;79.89;99400.06;4410312;32;20089;-72
2020/12/09 00:28:13;;;;;;;6.70;2.87;;;;;;;9.11;79.83;99407.75;4413790;32;20140;-72
2020/12/09 00:30:38;;;;;;;6.55;2.90;;;;;;;9.11;79.71;99404.94;4412105;32;20101;-72
2020/12/09 00:33:04;;;;;;;5.22;2.67;;;;;;;9.20;79.97;99407.78;4412003;32;20050;-72
2020/12/09 00:35:30;;;;;;;5.87;2.37;;;;;;;9.25;79.78;99412.81;4409305;32;20091;-71
2020/12/09 00:37:56;;;;;;;7.75;3.15;;;;;;;9.34;79.81;99412.06;4413819;32;20129;-72
2020/12/09 00:40:21;;;;;;;3.97;1.95;;;;;;;9.48;79.75;99408.69;4415544;32;20186;-72
2020/12/09 00:42:47;;;;;;;3.97;1.40;;;;;;;9.48;79.18;99417.88;4415916;32;20101;-71
2020/12/09 00:45:13;;;;;;;4.35;1.10;;;;;;;9.43;77.99;99418.50;4414250;32;20464;-72
2020/12/09 00:47:40;;;;;;;5.35;1.37;;;;;;;9.34;78.10;99414.87;4416431;32;20034;-71
2020/12/09 00:52:51;;;;;;;4.22;1.33;;;;;;;9.87;77.06;99419.88;3983481;32;15079142;-71
2020/12/09 00:55:17;;;;;;;5.57;1.52;;;;;;;9.87;77.06;99419.88;4440095;32;20409;-72
2020/12/09 00:57:42;;;;;;;6.45;1.60;;;;;;;9.53;78.37;99425.69;4442921;32;21225;-71
2020/12/09 01:00:08;;;;;;;4.75;1.40;;;;;;;9.58;78.52;99418.69;4444376;32;20033;-71
2020/12/09 01:02:35;;;;;;;7.82;1.87;;;;;;;9.52;78.37;99412.13;4443271;32;20064;-71
2020/12/09 01:05:00;;;;;;;5.18;1.58;;;;;;;9.46;77.31;99422.41;4443189;32;20145;-71
2020/12/09 01:07:26;;;;;;;5.18;1.33;;;;;;;9.40;77.88;99413.81;4441374;32;20454;-71
2020/12/09 01:09:52;;;;;;;3.75;1.70;;;;;;;9.45;77.18;99413.19;4440836;32;20066;-71
2020/12/09 01:12:17;;;;;;;2.33;1.25;;;;;;;9.40;77.46;99425.03;4442069;32;20147;-71
2020/12/09 01:14:43;;;;;;;5.00;1.55;;;;;;;9.33;76.97;99404.88;4441300;32;20025;-71
2020/12/09 01:17:09;;;;;;;5.43;2.17;;;;;;;9.23;77.15;99408.88;4443078;32;20053;-72
2020/12/09 01:19:34;;;;;;;3.80;2.28;;;;;;;9.31;77.07;99419.38;4443883;32;20421;-71
2020/12/09 01:22:07;;;;;;;5.40;1.67;;;;;;;9.29;76.59;99409.84;4442830;32;20527;-72
2020/12/09 01:24:33;;;;;;;6.10;1.30;;;;;;;9.28;76.46;99422.31;4439740;32;20099;-72
2020/12/09 01:26:59;;;;;;;6.15;1.40;;;;;;;9.32;75.43;99423.75;4441462;32;20053;-71
2020/12/09 01:29:25;;;;;;;4.68;1.67;;;;;;;9.39;75.62;99428.31;4443427;32;20474;-71
2020/12/09 01:31:59;;;;;;;4.35;1.20;;;;;;;9.45;75.43;99432.84;4440934;32;20328;-72
2020/12/09 01:34:26;;;;;;;4.67;1.20;;;;;;;9.47;75.38;99427.56;4441672;32;20600;-72
2020/12/09 01:36:52;;;;;;;2.72;0.98;;;;;;;9.47;75.75;99430.37;4440067;32;20063;-73
2020/12/09 01:39:18;;;;;;;7.43;1.50;;;;;;;9.38;75.99;99429.53;4442054;32;20084;-71
2020/12/09 01:41:44;;;;;;;3.00;1.15;;;;;;;9.44;76.03;99434.09;4442766;32;20495;-72
2020/12/09 01:44:10;;;;;;;5.65;1.30;;;;;;;9.33;76.16;99433.72;4441840;32;20068;-72
2020/12/09 01:46:36;;;;;;;5.55;1.75;;;;;;;9.43;76.55;99440.97;4442355;32;20042;-71
2020/12/09 01:49:03;;;;;;;4.30;1.75;;;;;;;9.53;76.58;99441.75;4441343;32;20090;-71
2020/12/09 01:51:29;;;;;;;5.80;1.70;;;;;;;9.61;76.24;99441.00;4443162;32;20180;-71
2020/12/09 01:53:57;;;;;;;2.20;1.35;;;;;;;9.68;76.64;99432.31;4441582;32;20056;-72
2020/12/09 01:56:23;;;;;;;5.55;1.20;;;;;;;9.64;76.11;99433.69;4438224;32;20026;-72
2020/12/09 01:58:50;;;;;;;10.55;1.80;;;;;;;9.70;76.28;99437.47;4441751;32;20053;-72
2020/12/09 02:01:17;;;;;;;7.35;1.80;;;;;;;9.68;76.00;99442.75;4441260;32;20554;-71
2020/12/09 02:03:42;;;;;;;9.15;1.92;;;;;;;9.72;76.01;99451.81;4431844;32;20069;-71
2020/12/09 02:06:08;;;;;;;3.75;1.48;;;;;;;9.65;75.72;99440.88;4432004;32;20021;-72
2020/12/09 02:08:34;;;;;;;8.63;1.87;;;;;;;9.62;75.73;99453.81;4430962;32;20488;-71
2020/12/09 02:11:01;;;;;;;8.23;1.75;;;;;;;9.64;75.82;99448.50;4431883;32;20046;-72
2020/12/09 02:13:28;;;;;;;4.75;1.52;;;;;;;9.64;76.22;99448.50;4431654;32;20474;-72
2020/12/09 02:15:55;;;;;;;4.97;1.70;;;;;;;9.64;76.25;99462.53;4430030;32;20065;-72
2020/12/09 02:18:20;;;;;;;5.45;1.90;;;;;;;9.77;76.86;99454.81;4431841;32;20118;-72
2020/12/09 02:20:47;;;;;;;5.18;1.70;;;;;;;9.68;75.99;99457.59;4432817;32;20069;-71
2020/12/09 02:23:12;;;;;;;3.47;1.35;;;;;;;9.70;76.00;99457.12;4430495;32;20060;-72
2020/12/09 02:25:38;;;;;;;8.23;1.30;;;;;;;9.68;75.60;99468.03;4431349;32;20026;-72
2020/12/09 02:28:04;;;;;;;4.22;1.50;;;;;;;9.55;76.18;99465.31;4424128;32;20085;-72
2020/12/09 02:30:29;;;;;;;8.10;1.45;;;;;;;9.60;77.18;99464.72;4430519;32;20029;-71
2020/12/09 02:32:55;;;;;;;6.75;1.35;;;;;;;9.60;77.13;99469.56;4431572;32;20066;-71
2020/12/09 02:35:21;;;;;;;2.75;0.98;;;;;;;9.61;76.69;99468.31;4428977;32;20336;-72
2020/12/09 02:37:46;;;;;;;2.62;0.95;;;;;;;9.56;76.26;99466.91;4430916;32;20112;-71
2020/12/09 02:40:12;;;;;;;4.62;1.30;;;;;;;9.61;76.04;99469.09;4430612;32;20144;-72
2020/12/09 02:42:38;;;;;;;4.97;1.55;;;;;;;9.62;76.04;99469.88;4429803;32;20073;-72
2020/12/09 02:45:04;;;;;;;5.05;1.48;;;;;;;9.60;75.86;99473.16;4431187;32;20429;-72
2020/12/09 02:47:30;;;;;;;3.97;1.25;;;;;;;9.60;75.53;99472.34;4431339;32;20072;-72
2020/12/09 02:49:56;;;;;;;6.62;1.00;;;;;;;9.65;75.58;99472.56;4431275;32;20435;-72
2020/12/09 02:52:21;;;;;;;6.32;1.85;;;;;;;9.69;75.70;99472.41;4430840;32;20093;-72
2020/12/09 02:54:47;;;;;;;1.70;0.77;;;;;;;9.69;75.43;99469.59;4430776;32;20026;-72
2020/12/09 02:57:12;;;;;;;4.18;1.02;;;;;;;9.65;75.01;99486.59;4427906;32;20463;-71
2020/12/09 02:59:38;;;;;;;5.28;1.42;;;;;;;9.62;74.82;99481.91;4430507;32;20091;-71
2020/12/09 03:02:03;;;;;;;7.28;1.37;;;;;;;9.58;74.39;99488.91;4430288;32;20107;-72
2020/12/09 03:04:29;;;;;;;3.80;0.77;;;;;;;9.54;74.41;99493.88;4424697;32;20066;-72
2020/12/09 03:06:55;;;;;;;3.28;0.80;;;;;;;9.60;74.04;99490.00;4430644;32;20077;-72
2020/12/09 03:09:20;;;;;;;4.85;0.90;;;;;;;9.61;74.37;99485.19;4429823;32;20060;-72
2020/12/09 03:11:46;;;;;;;3.50;0.80;;;;;;;9.61;74.33;99488.75;4430891;32;20069;-71
2020/12/09 03:14:12;;;;;;;5.45;0.90;;;;;;;9.67;74.14;99495.31;4428006;32;20112;-72
2020/12/09 03:16:37;;;;;;;5.97;0.90;;;;;;;9.75;74.06;99490.22;4429629;32;20442;-72
2020/12/09 03:19:03;;;;;;;3.05;0.62;;;;;;;9.69;74.10;99497.66;4430037;32;20304;-72
2020/12/09 03:21:30;;;;;;;7.28;0.90;;;;;;;9.55;74.99;99487.78;4427213;32;20061;-71
2020/12/09 03:23:56;;;;;;;3.58;0.70;;;;;;;9.55;75.54;99498.25;4429321;32;20065;-72
2020/12/09 03:26:22;;;;;;;2.72;1.23;;;;;;;9.53;75.40;99500.72;4430285;32;20180;-71
2020/12/09 03:28:47;;;;;;;4.00;0.90;;;;;;;9.44;75.10;99495.06;4428268;32;20077;-72
2020/12/09 03:31:13;;;;;;;6.18;0.70;;;;;;;9.50;75.34;99496.84;4430728;32;20088;-71
2020/12/09 03:33:39;;;;;;;5.68;0.90;;;;;;;9.54;75.76;99493.88;4430570;32;20049;-72
2020/12/09 03:36:04;;;;;;;4.53;0.90;;;;;;;9.53;75.82;99495.91;4430819;32;20100;-72
2020/12/09 03:38:30;;;;;;;7.45;0.80;;;;;;;9.54;75.74;99494.66;4427903;32;20062;-72
2020/12/09 03:40:56;;;;;;;5.50;0.85;;;;;;;9.47;75.23;99488.53;4428668;32;20083;-71
2020/12/09 03:43:22;;;;;;;3.95;0.65;;;;;;;9.50;75.75;99504.47;4427753;32;20358;-72
2020/12/09 03:45:47;;;;;;;1.95;0.65;;;;;;;9.48;76.08;99499.31;4429312;32;20046;-72
2020/12/09 03:48:13;;;;;;;4.93;0.85;;;;;;;9.46;76.10;99484.16;4430469;32;20077;-72
2020/12/09 03:50:39;;;;;;;3.10;0.80;;;;;;;9.51;76.50;99492.78;4423918;32;20062;-72
2020/12/09 03:53:04;;;;;;;5.07;0.98;;;;;;;9.52;76.81;99499.97;4427720;32;20093;-71
2020/12/09 03:55:30;;;;;;;3.85;0.65;;;;;;;9.52;76.49;99491.53;4429646;32;20065;-72
2020/12/09 03:58:00;;;;;;;4.07;0.70;;;;;;;9.37;75.83;99493.34;4428519;32;20104;-72
2020/12/09 04:00:27;;;;;;;3.10;0.60;;;;;;;9.33;75.75;99489.87;4429043;32;20022;-71
2020/12/09 04:02:52;;;;;;;3.22;0.80;;;;;;;9.32;75.60;99498.75;4427938;32;20052;-72
2020/12/09 04:05:18;;;;;;;7.00;0.90;;;;;;;9.31;75.66;99500.78;4429617;32;20334;-72
2020/12/09 04:07:43;;;;;;;3.90;0.77;;;;;;;9.35;75.14;99507.03;4431518;32;20045;-72
2020/12/09 04:10:09;;;;;;;4.95;1.12;;;;;;;9.37;75.22;99503.78;4429454;32;20084;-71
2020/12/09 04:12:35;;;;;;;3.78;0.90;;;;;;;9.39;74.74;99502.06;4429000;32;20108;-71
2020/12/09 04:15:02;;;;;;;2.78;1.00;;;;;;;9.30;73.71;99510.44;4431160;32;21467;-71
2020/12/09 04:17:27;;;;;;;6.35;1.10;;;;;;;9.31;74.26;99511.22;4428027;32;20153;-72
2020/12/09 04:19:53;;;;;;;4.00;0.85;;;;;;;9.35;74.42;99509.84;4429982;32;20061;-72
2020/12/09 04:22:19;;;;;;;5.80;0.70;;;;;;;9.39;74.73;99509.72;4428345;32;20441;-72
2020/12/09 04:24:44;;;;;;;13.48;1.00;;;;;;;9.44;74.48;99517.53;4428416;32;20086;-72
2020/12/09 04:27:10;;;;;;;4.00;0.75;;;;;;;9.46;74.65;99518.66;4428319;32;20403;-72
2020/12/09 04:29:36;;;;;;;3.97;1.02;;;;;;;9.44;73.97;99512.72;4430157;32;20030;-72
2020/12/09 04:32:03;;;;;;;4.20;0.80;;;;;;;9.46;74.57;99512.25;4428718;32;20078;-73
2020/12/09 04:34:29;;;;;;;3.72;0.70;;;;;;;9.45;73.67;99522.69;4428155;32;20133;-72
2020/12/09 04:36:54;;;;;;;5.93;0.80;;;;;;;9.42;74.42;99517.22;4428677;32;20085;-72
2020/12/09 04:39:22;;;;;;;2.55;0.75;;;;;;;9.44;74.42;99512.72;4429534;32;20125;-72
2020/12/09 04:41:47;;;;;;;5.18;1.15;;;;;;;9.47;74.46;99513.81;4430001;32;20021;-72
2020/12/09 04:44:13;;;;;;;4.87;0.80;;;;;;;9.47;74.33;99513.81;4429200;32;20052;-73
2020/12/09 04:46:45;;;;;;;6.68;1.15;;;;;;;9.39;74.38;99506.91;4429905;32;20432;-72
2020/12/09 04:49:14;;;;;;;7.25;1.42;;;;;;;9.38;74.67;99508.94;4429317;32;20013;-73
2020/12/09 04:54:16;;;;;;;7.53;1.80;;;;;;;9.69;73.94;99520.16;3998756;31;15018340;-73
2020/12/09 04:56:54;;;;;;;11.75;1.77;;;;;;;9.69;73.94;99520.16;4458582;32;20100;-72
2020/12/09 04:59:25;;;;;;;10.32;1.67;;;;;;;9.20;74.39;99533.31;4457860;32;20016;-73
2020/12/09 05:02:11;;;;;;;7.85;1.40;;;;;;;9.12;75.08;99526.41;4455540;32;20085;-72
2020/12/09 05:04:38;;;;;;;4.15;1.30;;;;;;;9.04;75.20;99533.50;4458975;32;20466;-72
2020/12/09 05:07:09;;;;;;;5.20;1.65;;;;;;;8.95;75.25;99525.81;4458606;32;20424;-73
2020/12/09 05:09:46;;;;;;;6.53;1.40;;;;;;;8.94;75.18;99532.69;4460393;32;20037;-73
2020/12/09 05:12:15;;;;;;;6.37;2.25;;;;;;;8.86;75.44;99536.19;4457737;32;20099;-72
2020/12/09 05:14:46;;;;;;;6.03;1.25;;;;;;;8.82;75.13;99543.94;4457733;32;20335;-72
2020/12/09 05:17:15;;;;;;;6.30;1.20;;;;;;;8.79;75.64;99550.47;4459037;32;20085;-73
2020/12/09 05:19:42;;;;;;;4.50;1.70;;;;;;;8.79;75.86;99548.44;4459986;32;20032;-72
2020/12/09 05:22:13;;;;;;;5.90;1.62;;;;;;;8.75;75.66;99547.00;4443501;32;20024;-73
2020/12/09 05:24:39;;;;;;;6.57;1.85;;;;;;;8.73;75.70;99552.28;4458623;32;20068;-72
2020/12/09 05:27:05;;;;;;;6.62;1.58;;;;;;;8.69;75.80;99549.63;4458882;32;20521;-72
2020/12/09 05:29:30;;;;;;;6.40;2.28;;;;;;;8.64;75.78;99546.59;4457298;32;20377;-72
2020/12/09 05:32:00;;;;;;;14.68;2.28;;;;;;;8.57;75.76;99553.25;4456882;32;20129;-73
2020/12/09 05:34:34;;;;;;;7.00;1.80;;;;;;;8.48;75.06;99555.19;4457430;32;20045;-73
2020/12/09 05:37:06;;;;;;;8.82;2.22;;;;;;;8.41;75.60;99555.44;4459063;32;20029;-72
2020/12/09 05:39:33;;;;;;;6.97;1.98;;;;;;;8.36;76.35;99556.78;4458070;32;20094;-72
2020/12/09 05:42:13;;;;;;;7.68;2.22;;;;;;;8.28;76.83;99572.25;4458336;32;20461;-72
2020/12/09 05:44:44;;;;;;;8.10;3.15;;;;;;;8.27;77.23;99567.91;4458366;32;20043;-72
2020/12/09 05:47:10;;;;;;;11.10;2.25;;;;;;;8.31;77.40;99571.34;4457778;32;20106;-73
2020/12/09 05:49:37;;;;;;;9.43;2.42;;;;;;;8.23;77.40;99578.44;4459990;32;20158;-73
2020/12/09 05:54:53;;;;;;;9.93;3.65;;;;;;;8.78;76.48;99577.75;3984925;32;15024479;-74
2020/12/09 05:57:23;;;;;;;6.75;2.65;;;;;;;8.78;76.48;99577.75;4437557;32;20463;-74
2020/12/09 05:59:50;;;;;;;13.93;3.42;;;;;;;8.39;77.08;99571.91;4439048;32;20153;-72
2020/12/09 06:07:31;;;;;;;7.43;2.58;;;;;;;8.60;76.71;99585.19;3987095;32;15021741;-74
2020/12/09 06:15:29;;;;;;;6.35;3.97;;;;;;;8.68;76.84;99586.53;3985233;32;15024434;-72
2020/12/09 06:20:39;;;;;;;8.40;2.87;;;;;;;8.74;76.77;99579.88;3985404;32;15024555;-73
2020/12/09 06:23:11;;;;;;;8.80;2.37;;;;;;;8.74;76.77;99579.88;4439621;32;20108;-73
2020/12/09 06:25:38;;;;;;;9.60;2.92;;;;;;;8.44;77.54;99579.75;4439790;32;20034;-73
2020/12/09 06:28:11;;;;;;;5.80;2.33;;;;;;;8.50;77.99;99577.94;4436926;32;20082;-73
2020/12/09 06:30:37;;;;;;;5.18;2.00;;;;;;;8.63;77.05;99585.09;4435708;32;20025;-74
2020/12/09 06:33:02;;;;;;;4.47;2.37;;;;;;;8.72;77.18;99579.56;4435073;32;20029;-71
2020/12/09 06:35:28;;;;;;;6.32;2.10;;;;;;;8.72;76.99;99578.78;4435434;32;20114;-72
2020/12/09 06:44:01;;;;;;;5.03;2.08;;;;;;;9.30;75.40;99594.66;4001386;31;15020996;-73
2020/12/09 06:46:35;;;;;;;8.32;2.95;;;;;;;9.30;75.40;99594.66;4453962;32;20101;-72
2020/12/09 06:49:01;;;;;;;9.68;3.53;;;;;;;8.89;76.26;99600.59;4440715;32;20037;-72
2020/12/09 06:51:36;;;;;;;8.82;3.22;;;;;;;8.94;76.80;99602.81;4455478;32;20108;-73
2020/12/09 06:54:17;;;;;;;10.23;3.53;;;;;;;9.03;76.66;99602.91;4441934;32;20041;-72
2020/12/09 06:56:43;;;;;;;9.48;3.80;;;;;;;9.07;76.20;99609.16;4438119;32;20085;-73
2020/12/09 06:59:29;;;;;;;6.28;2.67;;;;;;;9.07;75.99;99606.34;4438286;32;20079;-73
2020/12/09 07:01:58;;;;;;;;;;;;;;;9.17;75.54;99612.81;4438910;32;20136;-73
2020/12/09 07:04:24;;;;;;;3.22;1.52;;;;;;;9.22;75.83;99618.63;4439430;32;19999;-72
2020/12/09 07:06:49;;;;;;;6.35;1.60;;;;;;;9.13;75.41;99624.16;4440800;32;20084;-73
2020/12/09 07:09:15;;;;;;;5.18;1.40;;;;;;;9.04;75.56;99624.09;4440741;32;20446;-72
2020/12/09 07:11:56;;;;;;;4.15;1.17;;;;;;;9.15;75.92;99616.09;4440300;32;20142;-73
2020/12/09 07:14:21;;;;;;;6.90;2.12;;;;;;;9.31;75.84;99631.94;4438568;32;20037;-74
2020/12/09 07:16:47;;;;;;;4.40;1.95;;;;;;;9.46;75.31;99628.16;4439863;32;20083;-73
2020/12/09 07:19:14;;;;;;;7.90;1.70;;;;;;;9.55;74.87;99628.19;4440516;32;20025;-74
2020/12/09 07:21:39;;;;;;;4.25;1.60;;;;;;;9.64;74.60;99631.06;4440729;32;20073;-73
2020/12/09 07:24:05;;;;;;;7.10;1.95;;;;;;;9.68;74.04;99640.16;4441173;32;20119;-73
2020/12/09 07:26:30;;;;;;;3.72;1.80;;;;;;;9.76;74.44;99633.03;4439353;32;20075;-75
2020/12/09 07:28:56;;;;;;;7.78;0.80;;;;;;;9.64;73.50;99641.53;4438854;32;20140;-74
2020/12/09 07:31:22;;;;;;;2.33;0.55;;;;;;;9.62;72.88;99632.78;4441160;32;20072;-72
2020/12/09 07:33:48;;;;;;;1.85;0.60;;;;;;;9.57;73.45;99639.78;4435857;32;20073;-74
2020/12/09 07:36:14;;;;;;;4.50;1.60;;;;;;;9.54;73.94;99637.88;4436928;32;20059;-73
2020/12/09 07:38:44;;;;;;;7.65;1.60;;;;;;;9.49;74.77;99629.28;4436964;32;20148;-73
2020/12/09 07:41:09;;;;;;;9.23;1.12;;;;;;;9.43;75.00;99639.53;4435596;32;20069;-73
2020/12/09 07:43:35;;;;;;;4.97;1.10;;;;;;;9.31;74.77;99641.16;4433412;32;20134;-73
2020/12/09 07:46:03;;;;;;;4.12;1.15;;;;;;;9.15;74.94;99641.34;4435939;32;20478;-72
2020/12/09 07:48:31;;;;;;;2.47;0.80;;;;;;;9.16;76.01;99647.72;4432689;32;20053;-73
2020/12/09 07:50:58;;;;;;;4.10;0.80;;;;;;;8.94;76.37;99633.69;4434813;32;20029;-72
2020/12/09 07:53:25;;;;;;;5.85;1.40;;;;;;;8.96;76.97;99644.44;4429393;32;20071;-73
2020/12/09 07:55:51;;;;;;;4.20;1.08;;;;;;;8.90;77.71;99632.22;4424867;32;20189;-73
2020/12/09 07:58:18;;;;;;;4.62;1.30;;;;;;;8.95;78.00;99651.28;4423460;32;20107;-73
2020/12/09 08:00:46;;;;;;;8.60;2.17;;;;;;;8.94;77.33;99650.50;4426288;32;20464;-76
2020/12/09 08:03:21;;;;;;;7.62;2.00;;;;;;;8.81;77.85;99638.53;4421775;32;21009;-73
2020/12/09 08:05:48;;;;;;;3.22;1.85;;;;;;;8.83;78.42;99641.66;4426892;32;20033;-72
2020/12/09 08:08:15;;;;;;;10.27;3.15;;;;;;;8.74;78.43;99644.38;4422834;32;20091;-73
2020/12/09 08:10:43;;;;;;;8.25;3.62;;;;;;;8.82;79.20;99653.34;4424086;32;20100;-71
2020/12/09 08:16:06;;;;;;;6.53;2.75;;;;;;;9.38;77.88;99646.50;3975649;32;15023432;-74
2020/12/09 08:18:32;;;;;;;10.30;3.30;;;;;;;9.38;77.88;99646.50;4429967;32;20112;-73
2020/12/09 08:20:58;;;;;;;8.90;3.90;;;;;;;9.01;78.71;99644.66;4428228;32;20097;-73
2020/12/09 08:26:33;;;;;;;5.75;3.00;;;;;;;9.19;77.77;99638.41;3978236;32;15023266;-72
2020/12/09 08:28:59;;;;;;;6.82;3.80;;;;;;;9.14;77.31;99648.19;4432954;32;20520;-71
2020/12/09 08:31:25;;;;;;;5.50;1.90;;;;;;;9.13;77.44;99657.06;4434728;32;20065;-73
2020/12/09 08:33:51;;;;;;;3.15;1.75;;;;;;;9.04;76.44;99651.37;4433889;32;20097;-75
2020/12/09 08:36:19;;;;;;;5.03;1.90;;;;;;;9.01;76.26;99669.91;4435324;32;20053;-74
2020/12/09 08:41:26;;;;;;;3.67;1.50;;;;;;;9.64;74.93;99673.22;3984028;32;15022017;-73
2020/12/09 08:43:55;;;;;;;3.72;1.30;;;;;;;9.64;74.93;99673.22;4441083;32;20051;-74
2020/12/09 08:46:23;;;;;;;5.43;1.10;;;;;;;9.24;75.46;99672.28;4437796;32;20370;-74
2020/12/09 08:48:49;;;;;;;2.97;0.95;;;;;;;9.20;75.93;99674.44;4431603;32;20125;-74
2020/12/09 08:51:14;;;;;;;2.15;0.80;;;;;;;9.16;76.59;99670.97;4436997;32;20076;-75
2020/12/09 08:53:40;;;;;;;4.65;0.88;;;;;;;9.29;76.66;99665.28;4423819;32;20138;-74
2020/12/09 08:56:06;;;;;;;1.50;0.57;;;;;;;9.22;76.33;99660.75;4422388;32;20053;-73
2020/12/09 08:58:32;;;;;;;1.95;0.88;;;;;;;9.32;77.08;99670.78;4421464;32;20034;-75
2020/12/09 09:01:00;;;;;;;6.37;1.25;;;;;;;9.31;76.99;99666.44;4417028;32;20277;-74
2020/12/09 09:03:27;;;;;;;2.53;0.80;;;;;;;9.35;76.18;99672.69;4420773;32;20116;-73
2020/12/09 09:05:55;;;;;;;7.03;2.22;;;;;;;9.27;76.19;99665.75;4418570;32;20038;-74
2020/12/09 09:08:21;;;;;;;5.50;1.90;;;;;;;9.34;76.28;99662.72;4419797;32;20070;-73
2020/12/09 09:10:48;;;;;;;6.68;2.25;;;;;;;9.21;76.79;99669.62;4422439;32;20108;-75
2020/12/09 09:13:14;;;;;;;8.05;2.70;;;;;;;9.29;76.52;99668.09;4421687;32;20073;-74
2020/12/09 09:15:40;;;;;;;10.75;2.70;;;;;;;9.25;76.78;99670.25;4420902;32;20052;-74
2020/12/09 09:18:07;;;;;;;6.93;2.45;;;;;;;9.32;76.39;99662.38;4421393;32;20070;-74
2020/12/09 09:20:33;;;;;;;5.60;1.77;;;;;;;9.46;75.87;99652.66;4419248;32;20131;-74
2020/12/09 09:23:01;;;;;;;8.38;2.35;;;;;;;9.57;75.39;99659.44;4417590;32;20033;-74
2020/12/09 09:25:26;;;;;;;3.60;1.40;;;;;;;9.61;74.22;99656.50;4421609;32;20172;-73
2020/12/09 09:27:52;;;;;;;5.75;0.90;;;;;;;9.71;73.42;99661.72;4420843;32;20116;-73
2020/12/09 09:30:20;;;;;;;9.30;1.40;;;;;;;9.65;73.63;99660.75;4422740;32;20508;-74
2020/12/09 09:32:47;;;;;;;6.68;1.98;;;;;;;9.90;73.43;99659.78;4419576;32;20149;-74
2020/12/09 09:35:12;;;;;;;7.50;2.20;;;;;;;10.01;73.17;99660.19;4416953;32;20060;-75
2020/12/09 09:37:41;;;;;;;9.48;2.08;;;;;;;10.07;72.00;99649.94;4420113;32;20148;-74
2020/12/09 09:40:07;;;;;;;12.48;3.42;;;;;;;10.18;71.87;99653.09;4420520;32;20138;-74
2020/12/09 09:42:33;;;;;;;6.72;2.42;;;;;;;10.10;71.29;99655.41;4419935;32;20122;-75
2020/12/09 09:45:01;;;;;;;7.22;1.80;;;;;;;9.96;72.87;99658.75;4422257;32;20077;-72
2020/12/09 09:47:27;;;;;;;7.95;2.35;;;;;;;9.98;73.53;99666.72;4419291;32;20074;-71
2020/12/09 09:49:53;;;;;;;5.50;0.98;;;;;;;9.77;73.06;99665.50;4415998;32;20034;-72
2020/12/09 09:52:19;;;;;;;5.47;1.00;;;;;;;9.59;74.29;99662.59;4407899;32;20061;-72
2020/12/09 09:54:44;;;;;;;5.90;1.30;;;;;;;9.35;75.35;99669.88;4407910;32;20045;-72
2020/12/09 09:57:10;;;;;;;4.03;1.33;;;;;;;9.30;76.78;99666.88;4423807;32;20984;-71
2020/12/09 09:59:36;;;;;;;9.95;1.67;;;;;;;9.27;77.45;99671.38;4407694;32;20089;-72
2020/12/09 10:02:02;;;;;;;5.03;1.33;;;;;;;9.15;77.35;99675.03;4411160;32;20063;-72
2020/12/09 10:04:27;;;;;;;5.80;1.45;;;;;;;9.09;77.79;99676.84;4409642;32;20132;-72
2020/12/09 10:06:53;;;;;;;6.85;1.70;;;;;;;9.08;77.68;99671.69;4410372;32;20026;-74
2020/12/09 10:09:19;;;;;;;9.07;1.55;;;;;;;9.03;77.94;99664.63;4411927;32;20580;-73
2020/12/09 10:11:46;;;;;;;6.20;1.60;;;;;;;8.99;78.78;99660.38;4409929;32;20033;-73
2020/12/09 10:14:12;;;;;;;5.18;2.15;;;;;;;9.02;79.24;99663.03;4412028;32;20042;-73
2020/12/09 10:16:41;;;;;;;6.30;2.22;;;;;;;9.16;80.00;99670.19;4410438;32;20069;-72
2020/12/09 10:19:07;;;;;;;6.65;1.73;;;;;;;9.32;79.60;99665.19;4410182;32;20085;-74
2020/12/09 10:21:34;;;;;;;10.85;2.67;;;;;;;9.35;78.24;99655.06;4409793;32;20150;-73
2020/12/09 10:24:02;;;;;;;7.85;2.17;;;;;;;9.18;78.57;99664.91;4411680;32;20072;-73
2020/12/09 10:26:31;;;;;;;11.55;3.20;;;;;;;9.19;78.64;99664.47;4409411;32;20088;-72
2020/12/09 10:29:01;;;;;;;13.88;2.50;;;;;;;9.19;78.46;99661.66;4410026;32;20376;-73
2020/12/09 10:31:45;;;;;;;9.30;2.55;;;;;;;9.22;77.26;99655.12;4408724;32;20077;-72
2020/12/09 10:34:13;;;;;;;12.88;2.67;;;;;;;9.04;77.46;99659.78;4412015;32;20053;-74
2020/12/09 10:36:43;;;;;;;13.23;3.87;;;;;;;8.94;77.63;99660.94;4407525;32;20082;-72
2020/12/09 10:39:09;;;;;;;15.80;3.97;;;;;;;8.89;78.02;99658.69;4408517;32;20069;-72
2020/12/09 10:41:39;;;;;;;13.73;3.35;;;;;;;8.99;77.49;99663.94;4406857;32;20033;-73
2020/12/09 10:44:05;;;;;;;22.90;4.03;;;;;;;9.02;77.19;99651.81;4408166;32;20077;-73
2020/12/09 10:46:32;;;;;;;16.65;3.85;;;;;;;9.08;77.37;99652.81;4405749;32;20114;-72
2020/12/09 10:48:59;;;;;;;13.60;3.67;;;;;;;9.35;78.11;99653.03;4410484;32;20050;-72
2020/12/09 10:51:26;;;;;;;21.15;4.07;;;;;;;9.52;77.60;99648.00;4408103;32;20390;-72
2020/12/09 10:53:52;;;;;;;20.35;4.12;;;;;;;9.67;77.33;99644.19;4405226;32;20465;-72
2020/12/09 10:56:27;;;;;;;17.90;4.35;;;;;;;9.73;76.08;99638.78;4406038;32;20135;-73
2020/12/09 10:58:54;;;;;;;15.45;4.07;;;;;;;9.97;74.98;99653.88;4411171;32;20470;-73
2020/12/09 11:01:21;;;;;;;18.45;3.33;;;;;;;9.98;74.59;99650.63;4408007;32;20483;-73
2020/12/09 11:03:47;;;;;;;22.17;3.95;;;;;;;9.95;72.34;99645.91;4408196;32;20120;-73
2020/12/09 11:06:14;;;;;;;22.08;4.12;;;;;;;9.96;72.91;99647.50;4408477;32;20505;-75
2020/12/09 11:08:40;;;;;;;19.55;4.53;;;;;;;9.95;72.92;99645.16;4408612;32;20399;-75
2020/12/09 11:11:06;;;;;;;21.73;6.35;;;;;;;9.95;73.71;99643.09;4411003;32;20286;-73
2020/12/09 11:13:32;;;;;;;22.90;3.40;;;;;;;10.00;73.41;99631.28;4410089;32;20061;-74
2020/12/09 11:16:17;;;;;;;18.95;4.15;;;;;;;10.04;72.57;99633.97;4406316;32;20073;-73
2020/12/09 11:18:43;;;;;;;19.48;4.22;;;;;;;9.98;72.49;99645.00;4409512;32;20072;-74
2020/12/09 11:21:10;;;;;;;20.67;3.35;;;;;;;9.83;72.75;99638.38;4407097;32;20096;-74
2020/12/09 11:23:36;;;;;;;19.00;2.92;;;;;;;9.80;73.70;99636.50;4409478;32;20069;-74
2020/12/09 11:26:02;;;;;;;18.65;3.87;;;;;;;9.67;73.07;99630.16;4410588;32;20102;-74
2020/12/09 11:28:27;;;;;;;17.08;3.33;;;;;;;9.68;73.41;99630.94;4412130;32;20478;-74
2020/12/09 11:30:53;;;;;;;8.70;2.40;;;;;;;9.59;73.77;99628.09;4407491;32;20217;-73
2020/12/09 11:33:19;;;;;;;13.57;3.03;;;;;;;9.46;73.85;99622.56;4408357;32;20042;-73
2020/12/09 11:35:44;;;;;;;13.32;2.87;;;;;;;9.45;73.82;99623.78;4410330;32;20081;-73
2020/12/09 11:38:10;;;;;;;13.25;2.30;;;;;;;9.47;72.95;99626.13;4408565;32;20098;-73
2020/12/09 11:40:35;;;;;;;11.63;2.20;;;;;;;9.54;73.33;99621.03;4408556;32;20131;-73
2020/12/09 11:43:01;;;;;;;18.62;3.95;;;;;;;9.52;73.28;99623.53;4409846;32;20061;-74
2020/12/09 11:45:27;;;;;;;10.23;3.37;;;;;;;9.51;73.18;99619.13;4404269;32;20360;-74
2020/12/09 11:47:52;;;;;;;17.08;3.70;;;;;;;9.59;73.26;99620.44;4408734;32;20090;-74
2020/12/09 11:50:18;;;;;;;11.57;2.90;;;;;;;9.60;73.25;99612.78;4408704;32;20107;-74
2020/12/09 11:52:44;;;;;;;14.75;4.37;;;;;;;9.73;72.66;99621.94;4410126;32;20086;-74
2020/12/09 11:55:11;;;;;;;16.52;3.83;;;;;;;9.87;72.07;99612.94;4408320;32;20073;-74
2020/12/09 11:57:37;;;;;;;20.77;4.57;;;;;;;9.83;71.61;99606.69;4407929;32;20073;-73
2020/12/09 12:00:04;;;;;;;10.63;3.78;;;;;;;9.94;71.43;99601.41;4409847;32;20459;-73
2020/12/09 12:02:30;;;;;;;13.18;4.12;;;;;;;10.17;71.45;99591.72;4411284;32;20049;-75
2020/12/09 12:04:56;;;;;;;11.05;3.62;;;;;;;10.33;70.89;99591.44;4411509;32;20093;-76
2020/12/09 12:07:22;;;;;;;14.00;4.30;;;;;;;10.49;69.12;99588.38;4407535;32;20038;-75
2020/12/09 12:09:48;;;;;;;13.30;4.15;;;;;;;10.53;68.36;99584.16;4411960;32;20440;-75
2020/12/09 12:12:14;;;;;;;17.85;4.60;;;;;;;10.51;68.99;99585.88;4413518;32;20149;-77
2020/12/09 12:14:40;;;;;;;9.43;3.75;;;;;;;10.54;68.83;99579.31;4411943;32;20029;-75